Time;durP1;ratioP1;P1;durP2;ratioP2;P2;SDS_P1;SDS_P2;PMS_P1;PMS_P2;Temp;Humidity;BMP_temperature;BMP_pressure;BME280_temperature;BME280_humidity;BME280_pressure;Samples;Min_cycle;Max_cycle;Signal;HPM_P1;HPM_P2
2021/04/29 00:09:51;;;;;;;4.30;4.00;;;14.70;45.50;;;;;;5124723;23;20476;-89
2021/04/29 00:14:53;;;;;;;4.27;4.10;;;14.50;45.70;;;;;;5281913;22;20492;-89
2021/04/29 00:17:21;;;;;;;3.83;3.70;;;13.40;45.50;;;;;;4992700;28;20449;-90
2021/04/29 00:19:52;;;;;;;4.67;4.47;;;16.20;49.50;;;;;;4998256;28;20253;-90
2021/04/29 00:22:22;;;;;;;4.73;4.53;;;15.80;48.40;;;;;;4961386;28;20429;-89
2021/04/29 00:24:51;;;;;;;4.50;4.30;;;13.20;47.00;;;;;;4980999;28;20405;-89
2021/04/29 00:27:17;;;;;;;4.20;4.10;;;13.80;49.10;;;;;;4980899;28;20417;-89
2021/04/29 00:29:44;;;;;;;4.70;4.30;;;16.90;50.30;;;;;;4979624;28;20431;-89
2021/04/29 00:32:11;;;;;;;4.00;3.90;;;12.60;47.40;;;;;;4963524;28;20213;-89
2021/04/29 00:34:39;;;;;;;4.13;4.00;;;14.30;47.60;;;;;;4981406;28;20405;-89
2021/04/29 00:37:10;;;;;;;3.63;3.57;;;13.90;50.30;;;;;;4980469;28;20461;-89
2021/04/29 00:40:08;;;;;;;4.00;3.90;;;14.20;48.60;;;;;;4978751;28;20497;-89
2021/04/29 00:42:40;;;;;;;4.67;4.03;;;15.10;48.50;;;;;;4980184;28;20416;-90
2021/04/29 00:45:10;;;;;;;4.53;4.20;;;14.10;48.30;;;;;;4979987;28;20417;-89
2021/04/29 00:47:38;;;;;;;4.40;4.17;;;14.00;49.00;;;;;;4979313;28;20489;-89
2021/04/29 00:50:07;;;;;;;4.47;4.07;;;14.20;49.50;;;;;;4979313;28;20425;-90
2021/04/29 00:52:32;;;;;;;4.30;4.10;;;14.10;49.00;;;;;;4979563;28;20488;-88
2021/04/29 00:54:59;;;;;;;5.20;4.97;;;13.80;50.40;;;;;;4979767;28;20414;-90
2021/04/29 00:57:31;;;;;;;4.80;4.50;;;13.90;48.40;;;;;;4998207;28;20166;-89
2021/04/29 01:00:05;;;;;;;4.70;4.50;;;13.90;48.60;;;;;;4965857;28;20417;-90
2021/04/29 01:02:49;;;;;;;4.60;4.40;;;15.60;51.10;;;;;;4999195;28;20421;-90
2021/04/29 01:05:24;;;;;;;6.33;4.70;;;13.50;48.90;;;;;;4996673;28;20441;-89
2021/04/29 01:08:09;;;;;;;4.30;4.00;;;13.70;50.20;;;;;;4999420;28;20402;-90
2021/04/29 01:10:53;;;;;;;5.00;4.60;;;14.70;50.00;;;;;;4998603;28;20461;-90
2021/04/29 01:13:24;;;;;;;3.77;3.63;;;13.50;50.60;;;;;;4964306;28;20433;-88
2021/04/29 01:15:51;;;;;;;4.73;4.43;;;13.10;49.80;;;;;;4964157;28;20528;-88
2021/04/29 01:18:28;;;;;;;4.70;4.47;;;14.00;50.10;;;;;;4980726;28;20469;-89
2021/04/29 01:21:00;;;;;;;4.60;4.30;;;14.00;49.70;;;;;;4980698;28;20443;-89
2021/04/29 01:23:43;;;;;;;4.13;4.03;;;13.50;49.10;;;;;;4997587;28;20413;-89
2021/04/29 01:26:40;;;;;;;4.67;4.47;;;13.90;50.80;;;;;;4996386;28;20469;-90
2021/04/29 01:29:17;;;;;;;4.57;4.27;;;13.60;49.40;;;;;;4997204;28;20436;-89
2021/04/29 01:31:45;;;;;;;5.30;4.90;;;15.40;51.00;;;;;;4995835;28;20471;-90
2021/04/29 01:34:37;;;;;;;6.13;4.73;;;13.30;50.10;;;;;;4981193;28;21045;-90
2021/04/29 01:37:12;;;;;;;4.63;4.33;;;16.10;51.30;;;;;;4998142;28;20414;-89
2021/04/29 01:39:47;;;;;;;4.63;4.53;;;13.50;50.40;;;;;;4979644;28;20452;-89
2021/04/29 01:42:33;;;;;;;4.73;4.50;;;14.40;50.30;;;;;;4964143;28;20497;-90
2021/04/29 01:45:09;;;;;;;4.40;4.30;;;12.70;48.90;;;;;;4996858;28;20417;-90
2021/04/29 01:47:50;;;;;;;5.23;4.93;;;12.90;50.30;;;;;;4997720;28;20409;-89
2021/04/29 01:50:34;;;;;;;4.87;4.60;;;13.30;49.70;;;;;;4980470;28;20437;-90
2021/04/29 01:53:11;;;;;;;5.13;4.83;;;13.80;50.10;;;;;;4983712;28;20409;-89
2021/04/29 01:56:17;;;;;;;5.30;5.10;;;13.60;50.20;;;;;;4978761;28;20436;-88
2021/04/29 01:58:43;;;;;;;5.23;4.83;;;14.80;50.60;;;;;;4979486;28;20444;-90
2021/04/29 02:01:31;;;;;;;7.30;5.77;;;14.70;54.90;;;;;;4977330;28;20413;-89
2021/04/29 02:03:57;;;;;;;4.90;4.50;;;14.20;50.80;;;;;;4977351;28;20185;-89
2021/04/29 02:06:30;;;;;;;5.20;4.90;;;12.80;50.30;;;;;;4946326;28;20437;-90
2021/04/29 02:08:56;;;;;;;5.77;5.00;;;15.30;51.60;;;;;;4979943;28;20410;-89
2021/04/29 02:11:27;;;;;;;5.30;4.90;;;13.00;51.40;;;;;;4977380;28;20472;-89
2021/04/29 02:13:57;;;;;;;6.90;6.40;;;12.60;49.70;;;;;;4961391;28;20162;-92
2021/04/29 02:16:52;;;;;;;5.97;5.50;;;13.30;51.70;;;;;;4995329;28;20472;-90
2021/04/29 02:19:27;;;;;;;5.40;5.10;;;13.60;51.10;;;;;;4978902;28;20422;-90
2021/04/29 02:21:55;;;;;;;5.30;5.10;;;13.60;51.10;;;;;;4996235;28;20425;-89
2021/04/29 02:26:59;;;;;;;6.27;5.50;;;13.20;50.70;;;;;;4552700;26;20501;-88
2021/04/29 02:29:28;;;;;;;6.07;5.67;;;15.00;53.00;;;;;;4957927;29;20449;-90
2021/04/29 02:31:55;;;;;;;6.77;6.20;;;16.00;53.20;;;;;;4959697;29;20470;-88
2021/04/29 02:34:33;;;;;;;7.60;6.90;;;12.80;51.00;;;;;;4956924;29;20461;-90
2021/04/29 02:37:13;;;;;;;6.70;6.10;;;13.50;52.20;;;;;;4973989;28;20430;-89
2021/04/29 02:39:40;;;;;;;6.57;6.17;;;13.70;50.90;;;;;;4940173;29;20447;-90
2021/04/29 02:42:14;;;;;;;7.30;6.80;;;13.60;51.90;;;;;;4971882;28;20414;-90
2021/04/29 02:44:42;;;;;;;7.80;7.13;;;14.80;51.70;;;;;;4975569;29;20451;-89
2021/04/29 02:47:14;;;;;;;6.97;6.40;;;13.50;50.80;;;;;;4957082;29;20403;-89
2021/04/29 02:49:40;;;;;;;7.33;6.93;;;13.10;50.60;;;;;;4955803;28;20438;-89
2021/04/29 02:52:10;;;;;;;7.90;7.30;;;14.00;52.90;;;;;;4957831;29;20537;-89
2021/04/29 02:54:37;;;;;;;8.90;8.10;;;16.20;53.60;;;;;;4958545;29;20187;-89
2021/04/29 02:57:08;;;;;;;8.70;8.10;;;13.70;53.10;;;;;;4960059;29;20458;-91
2021/04/29 02:59:41;;;;;;;9.30;8.60;;;13.90;51.00;;;;;;4978859;28;20422;-90
2021/04/29 03:02:10;;;;;;;11.53;8.97;;;13.40;50.70;;;;;;4947656;28;20433;-90
2021/04/29 03:04:38;;;;;;;10.57;9.30;;;16.50;54.90;;;;;;4979782;28;20438;-90
2021/04/29 03:07:06;;;;;;;10.53;9.50;;;13.80;50.90;;;;;;4959565;28;20428;-87
2021/04/29 03:09:32;;;;;;;9.87;8.97;;;14.60;52.40;;;;;;4942238;29;20478;-90
2021/04/29 03:12:01;;;;;;;10.83;9.00;;;13.60;54.60;;;;;;4973342;29;20479;-90
2021/04/29 03:14:30;;;;;;;10.13;9.40;;;13.20;51.80;;;;;;4942150;29;20426;-90
2021/04/29 03:16:55;;;;;;;10.53;9.50;;;13.10;53.30;;;;;;4941632;28;20505;-88
2021/04/29 03:19:22;;;;;;;12.00;10.90;;;12.50;52.40;;;;;;4974138;29;20430;-90
2021/04/29 03:21:51;;;;;;;11.17;10.17;;;12.50;51.30;;;;;;4957253;29;20186;-90
2021/04/29 03:24:20;;;;;;;12.40;11.10;;;14.00;53.00;;;;;;4973267;29;20417;-89
2021/04/29 03:26:47;;;;;;;11.20;10.20;;;13.10;53.60;;;;;;4958081;29;20478;-91
2021/04/29 03:29:28;;;;;;;13.03;11.07;;;13.90;54.70;;;;;;4972218;29;20438;-91
2021/04/29 03:31:54;;;;;;;11.40;10.40;;;14.90;52.10;;;;;;4967050;29;20798;-90
2021/04/29 03:34:20;;;;;;;11.50;10.50;;;13.80;54.30;;;;;;4939329;29;20414;-90
2021/04/29 03:36:51;;;;;;;10.70;9.70;;;12.80;53.00;;;;;;4973590;28;20469;-90
2021/04/29 03:39:20;;;;;;;13.77;11.60;;;14.00;53.10;;;;;;4955676;29;20281;-88
2021/04/29 03:41:47;;;;;;;12.57;11.37;;;13.60;53.90;;;;;;4954922;29;20453;-89
2021/04/29 03:44:16;;;;;;;12.00;10.90;;;12.70;53.80;;;;;;4939495;29;20446;-89
2021/04/29 03:46:45;;;;;;;13.57;10.80;;;14.80;53.60;;;;;;4973828;29;20442;-89
2021/04/29 03:49:12;;;;;;;12.43;11.23;;;14.90;53.60;;;;;;4954878;29;20450;-90
2021/04/29 03:51:38;;;;;;;13.97;11.60;;;14.90;55.90;;;;;;4956533;29;20466;-89
2021/04/29 03:54:06;;;;;;;10.30;9.30;;;11.60;52.60;;;;;;4954293;29;20525;-90
2021/04/29 03:56:32;;;;;;;11.57;10.60;;;14.60;53.00;;;;;;4958412;29;20479;-90
2021/04/29 03:59:00;;;;;;;12.10;11.00;;;15.00;54.70;;;;;;4959555;29;20414;-90
2021/04/29 04:01:25;;;;;;;14.13;12.83;;;12.40;52.10;;;;;;4941980;29;20193;-90
2021/04/29 04:03:51;;;;;;;13.60;12.30;;;14.50;55.80;;;;;;4957848;29;20426;-90
2021/04/29 04:06:17;;;;;;;14.07;12.67;;;14.90;56.30;;;;;;4958650;29;20178;-91
2021/04/29 04:08:45;;;;;;;12.60;11.30;;;14.30;55.10;;;;;;4959657;29;20195;-89
2021/04/29 04:11:14;;;;;;;14.50;11.70;;;13.40;52.40;;;;;;4975558;29;20214;-89
2021/04/29 04:13:39;;;;;;;12.80;11.50;;;13.00;54.80;;;;;;4940538;29;20494;-91
2021/04/29 04:16:19;;;;;;;12.20;10.87;;;14.80;56.20;;;;;;4956578;29;20433;-90
2021/04/29 04:18:45;;;;;;;17.13;11.20;;;13.80;54.50;;;;;;4975134;29;20173;-89
2021/04/29 04:21:19;;;;;;;13.70;10.73;;;14.50;56.00;;;;;;4943365;29;20418;-89
2021/04/29 04:23:45;;;;;;;13.47;12.07;;;12.20;53.20;;;;;;4959213;29;20414;-89
2021/04/29 04:26:13;;;;;;;13.10;11.80;;;12.40;54.90;;;;;;4973668;29;20466;-89
2021/04/29 04:28:39;;;;;;;11.90;10.73;;;13.70;54.70;;;;;;4960782;28;20513;-89
2021/04/29 04:31:20;;;;;;;12.50;11.40;;;13.10;55.30;;;;;;4961261;29;20545;-90
2021/04/29 04:33:47;;;;;;;11.23;10.13;;;14.60;55.20;;;;;;4941583;29;20421;-90
2021/04/29 04:36:26;;;;;;;18.63;13.80;;;12.90;54.60;;;;;;4941715;29;20414;-90
2021/04/29 04:38:58;;;;;;;13.53;12.10;;;11.80;52.70;;;;;;4944078;29;20426;-90
2021/04/29 04:41:31;;;;;;;13.80;12.47;;;12.80;53.50;;;;;;4958431;29;20420;-88
2021/04/29 04:44:00;;;;;;;13.50;12.30;;;12.40;53.30;;;;;;4960250;29;20437;-89
2021/04/29 04:46:27;;;;;;;16.77;13.60;;;12.60;53.20;;;;;;4959453;29;20417;-89
2021/04/29 04:48:56;;;;;;;13.50;12.17;;;11.90;54.30;;;;;;4942939;29;20426;-88
2021/04/29 04:51:29;;;;;;;17.07;11.10;;;12.50;54.40;;;;;;4956996;29;20497;-88
2021/04/29 04:53:57;;;;;;;16.10;14.50;;;13.90;55.60;;;;;;4957006;29;20421;-88
2021/04/29 04:56:26;;;;;;;14.20;12.87;;;13.50;56.40;;;;;;4927606;29;20457;-87
2021/04/29 04:58:52;;;;;;;14.60;13.30;;;12.40;55.60;;;;;;4941121;29;20415;-90
2021/04/29 05:01:19;;;;;;;20.57;15.43;;;12.50;56.30;;;;;;4954664;29;20500;-90
2021/04/29 05:03:48;;;;;;;18.60;16.03;;;12.00;53.90;;;;;;4957401;29;20195;-87
2021/04/29 05:06:38;;;;;;;18.30;15.93;;;12.60;55.80;;;;;;4940352;29;20445;-90
2021/04/29 05:09:06;;;;;;;18.47;16.53;;;16.00;57.20;;;;;;4956728;29;20957;-90
2021/04/29 05:11:32;;;;;;;20.20;17.10;;;12.30;55.30;;;;;;4970587;29;20469;-88
2021/04/29 05:14:04;;;;;;;20.43;17.03;;;14.10;56.10;;;;;;4957381;29;20985;-89
2021/04/29 05:16:39;;;;;;;18.30;16.27;;;12.10;54.00;;;;;;4957721;29;20478;-87
2021/04/29 05:21:50;;;;;;;24.63;16.93;;;14.00;57.50;;;;;;5236222;23;20459;-86
2021/04/29 05:24:25;;;;;;;18.60;16.70;;;12.10;55.30;;;;;;5189294;22;20473;-88
2021/04/29 05:26:51;;;;;;;20.90;18.70;;;12.40;56.60;;;;;;4994337;28;20189;-89
2021/04/29 05:29:19;;;;;;;22.80;19.60;;;14.30;58.10;;;;;;4974509;28;20441;-87
2021/04/29 05:31:48;;;;;;;21.33;17.60;;;12.20;57.40;;;;;;4975630;28;20544;-89
2021/04/29 05:34:14;;;;;;;21.20;18.90;;;13.90;57.50;;;;;;4976426;28;20924;-91
2021/04/29 05:36:40;;;;;;;25.47;19.03;;;14.00;58.20;;;;;;4975703;28;20447;-89
2021/04/29 05:39:07;;;;;;;26.80;18.80;;;12.10;56.90;;;;;;4976188;28;20173;-90
2021/04/29 05:41:33;;;;;;;19.73;17.63;;;13.00;55.20;;;;;;4971542;28;20421;-87
2021/04/29 05:44:05;;;;;;;21.37;18.50;;;13.40;56.30;;;;;;4970480;28;20458;-90
2021/04/29 05:46:35;;;;;;;19.00;17.10;;;14.10;53.40;;;;;;4989982;28;20448;-89
2021/04/29 05:49:03;;;;;;;21.27;18.40;;;14.50;52.60;;;;;;4972928;28;20433;-90
2021/04/29 05:51:33;;;;;;;27.77;18.57;;;14.80;53.10;;;;;;5138532;22;20453;-91
2021/04/29 05:53:58;;;;;;;23.20;19.37;;;14.80;53.80;;;;;;5217103;22;20578;-92
2021/04/29 05:59:28;;;;;;;23.73;17.93;;;14.10;49.80;;;;;;2911735;22;21198;-89
2021/04/29 06:02:03;;;;;;;22.33;20.10;;;15.30;49.80;;;;;;5348748;22;20469;31
2021/04/29 06:04:29;;;;;;;21.43;19.33;;;14.40;48.70;;;;;;5083447;22;20543;-91
2021/04/29 06:12:06;;;;;;;26.20;22.87;;;14.80;45.90;;;;;;5019242;22;20484;-91
2021/04/29 06:14:34;;;;;;;28.43;23.83;;;15.00;47.30;;;;;;4996964;28;20520;-87
2021/04/29 06:19:36;;;;;;;23.80;21.13;;;14.90;46.20;;;;;;5399525;22;20483;-89
2021/04/29 06:22:01;;;;;;;27.03;23.97;;;15.70;48.10;;;;;;5019863;22;20469;-87
2021/04/29 06:24:30;;;;;;;33.53;25.17;;;15.60;45.30;;;;;;5282295;22;20514;-88
2021/04/29 06:26:56;;;;;;;28.70;23.27;;;17.40;46.10;;;;;;4966917;29;20490;-90
2021/04/29 06:29:23;;;;;;;29.00;25.93;;;15.90;44.00;;;;;;4966210;29;20430;-89
2021/04/29 06:31:49;;;;;;;31.37;25.13;;;16.10;42.20;;;;;;4968167;29;20465;-90
2021/04/29 06:34:14;;;;;;;30.27;27.13;;;15.30;43.10;;;;;;4966310;29;20414;-91
2021/04/29 06:36:41;;;;;;;28.40;25.50;;;15.80;44.30;;;;;;4964949;28;20501;-88
2021/04/29 06:39:12;;;;;;;31.63;27.50;;;14.60;43.20;;;;;;4964400;29;20190;-91
2021/04/29 06:41:38;;;;;;;27.37;24.73;;;15.20;45.00;;;;;;4963556;28;20434;-88
2021/04/29 06:44:04;;;;;;;29.43;24.73;;;15.80;44.40;;;;;;4964165;29;20914;-87
2021/04/29 06:46:30;;;;;;;27.10;24.60;;;15.90;42.20;;;;;;4961747;29;21182;-89
2021/04/29 06:48:57;;;;;;;23.40;20.90;;;15.80;40.00;;;;;;4955460;29;20402;-87
2021/04/29 06:51:23;;;;;;;25.93;23.30;;;15.90;39.80;;;;;;4951702;29;20233;-87
2021/04/29 06:53:48;;;;;;;25.50;22.73;;;15.90;39.60;;;;;;4951975;29;20430;-87
2021/04/29 06:56:14;;;;;;;25.40;22.67;;;16.10;39.30;;;;;;4954191;29;20525;-85
2021/04/29 06:58:39;;;;;;;23.80;21.27;;;16.30;38.90;;;;;;4955165;29;20163;-86
2021/04/29 07:01:05;;;;;;;25.97;22.83;;;16.20;38.10;;;;;;4943944;29;20178;-87
2021/04/29 07:03:30;;;;;;;26.60;21.20;;;15.90;38.20;;;;;;4956221;29;20179;-86
2021/04/29 07:05:56;;;;;;;23.33;21.03;;;16.30;38.70;;;;;;4956206;29;20254;-88
2021/04/29 07:08:22;;;;;;;27.83;23.70;;;16.50;38.50;;;;;;4954144;29;20202;-90
2021/04/29 07:10:48;;;;;;;25.03;21.47;;;18.00;39.30;;;;;;4956084;29;20253;-88
2021/04/29 07:13:15;;;;;;;23.73;21.23;;;16.60;37.00;;;;;;4955630;28;20530;-91
2021/04/29 07:15:40;;;;;;;26.27;23.50;;;16.50;37.20;;;;;;4953574;29;20414;-87
2021/04/29 07:18:06;;;;;;;25.60;23.10;;;16.00;38.10;;;;;;4953867;29;20457;-86
2021/04/29 07:20:36;;;;;;;24.80;22.20;;;16.00;38.00;;;;;;4954316;29;20601;-87
2021/04/29 07:23:03;;;;;;;22.80;20.50;;;15.90;38.50;;;;;;4955649;28;20178;-87
2021/04/29 07:25:29;;;;;;;23.03;20.73;;;16.10;38.20;;;;;;4953779;29;20465;-86
2021/04/29 07:27:55;;;;;;;24.80;20.90;;;18.10;39.20;;;;;;4955923;28;20418;-88
2021/04/29 07:30:20;;;;;;;24.03;21.83;;;15.50;37.00;;;;;;4956787;29;20463;-87
2021/04/29 07:32:46;;;;;;;25.83;22.40;;;16.70;37.50;;;;;;4959096;28;20254;-87
2021/04/29 07:35:12;;;;;;;28.13;21.10;;;16.40;37.20;;;;;;4614497;28;9999638;-86
2021/04/29 07:37:41;;;;;;;23.30;21.20;;;16.50;37.30;;;;;;4957376;29;20170;-87
2021/04/29 07:40:07;;;;;;;25.63;23.13;;;16.90;37.10;;;;;;4956070;29;20430;-87
2021/04/29 07:42:32;;;;;;;24.77;22.10;;;17.30;36.40;;;;;;4959377;28;20429;-87
2021/04/29 07:44:58;;;;;;;25.90;20.33;;;17.40;36.10;;;;;;4964023;29;20414;-87
2021/04/29 07:47:24;;;;;;;23.43;20.37;;;17.60;37.00;;;;;;4953873;29;20547;-86
2021/04/29 07:49:49;;;;;;;26.20;23.43;;;17.30;36.80;;;;;;4947729;29;20670;-85
2021/04/29 07:52:15;;;;;;;28.43;25.77;;;16.50;37.40;;;;;;4955963;29;20214;-85
2021/04/29 07:54:41;;;;;;;29.27;26.27;;;17.00;37.80;;;;;;4955382;29;20203;-85
2021/04/29 07:57:06;;;;;;;29.63;25.27;;;16.90;38.20;;;;;;4955316;29;20512;-85
2021/04/29 07:59:32;;;;;;;32.37;28.23;;;17.00;38.80;;;;;;4938737;29;20714;-84
2021/04/29 08:01:57;;;;;;;31.50;26.20;;;17.20;38.50;;;;;;4954206;29;20182;-85
2021/04/29 08:04:23;;;;;;;31.63;26.10;;;16.70;39.60;;;;;;4954307;29;20174;-85
2021/04/29 08:06:49;;;;;;;37.60;32.00;;;16.80;40.30;;;;;;4954459;29;20318;-86
2021/04/29 08:09:15;;;;;;;43.37;38.50;;;16.50;41.40;;;;;;4955172;29;20178;-85
2021/04/29 08:11:40;;;;;;;40.57;36.47;;;16.00;42.80;;;;;;4953999;29;20206;-84
2021/04/29 08:14:06;;;;;;;42.30;37.40;;;15.40;44.80;;;;;;4956102;29;20179;-84
2021/04/29 08:16:32;;;;;;;47.80;42.67;;;15.10;45.10;;;;;;4955620;29;20182;-85
2021/04/29 08:18:58;;;;;;;45.70;40.30;;;15.10;45.70;;;;;;4955624;29;20257;-83
2021/04/29 08:21:23;;;;;;;51.80;42.90;;;15.00;46.30;;;;;;4957067;28;20179;-84
2021/04/29 08:23:49;;;;;;;48.93;33.60;;;14.60;46.50;;;;;;4960751;28;20849;-85
2021/04/29 08:26:15;;;;;;;54.47;45.40;;;14.30;47.70;;;;;;4977188;28;20191;-84
2021/04/29 08:28:40;;;;;;;51.20;41.53;;;14.00;48.50;;;;;;4976601;28;20198;-85
2021/04/29 08:31:07;;;;;;;54.80;45.23;;;14.10;48.90;;;;;;4976461;28;20670;-84
2021/04/29 08:33:33;;;;;;;48.73;38.93;;;14.00;49.20;;;;;;4959643;28;20630;-85
2021/04/29 08:35:58;;;;;;;51.50;41.33;;;14.20;49.40;;;;;;4977099;28;20406;-84
2021/04/29 08:38:24;;;;;;;52.33;45.40;;;14.00;49.20;;;;;;4976620;28;20177;-86
2021/04/29 08:40:50;;;;;;;48.80;39.27;;;14.00;49.00;;;;;;4976644;28;20476;-86
2021/04/29 08:43:17;;;;;;;45.87;40.87;;;13.90;49.00;;;;;;4961426;28;20178;-86
2021/04/29 08:45:44;;;;;;;48.10;38.47;;;14.20;48.50;;;;;;4961129;28;20182;-87
2021/04/29 08:48:14;;;;;;;48.10;35.20;;;14.40;47.20;;;;;;4990660;28;20468;-86
2021/04/29 08:50:40;;;;;;;44.10;38.20;;;14.40;47.50;;;;;;4986868;28;20406;-87
2021/04/29 08:53:06;;;;;;;41.97;33.50;;;14.40;47.90;;;;;;4971626;28;20469;-87
2021/04/29 08:55:36;;;;;;;44.80;37.80;;;14.40;47.50;;;;;;4987639;28;20881;-90
2021/04/29 08:58:03;;;;;;;49.53;41.37;;;14.50;48.00;;;;;;4969804;28;20185;-89
2021/04/29 09:00:29;;;;;;;49.63;36.53;;;14.80;48.70;;;;;;4989215;28;20562;-88
2021/04/29 09:02:56;;;;;;;47.23;35.70;;;16.20;48.50;;;;;;4985017;28;20457;-88
2021/04/29 09:05:34;;;;;;;42.80;38.10;;;17.00;47.60;;;;;;4985382;28;20170;-89
2021/04/29 09:08:06;;;;;;;43.00;36.67;;;15.40;46.20;;;;;;4966346;28;20903;-84
2021/04/29 09:10:37;;;;;;;45.67;37.07;;;15.70;43.80;;;;;;4961926;28;20952;-87
2021/04/29 09:13:19;;;;;;;42.70;31.53;;;15.60;44.00;;;;;;4981860;28;20447;-86
2021/04/29 09:15:48;;;;;;;40.70;33.83;;;15.40;43.60;;;;;;4988415;28;20417;-86
2021/04/29 09:18:18;;;;;;;38.43;31.40;;;15.10;44.00;;;;;;4993138;28;20425;-87
2021/04/29 09:20:54;;;;;;;40.10;35.80;;;15.00;43.70;;;;;;4973093;28;20501;-86
2021/04/29 09:23:31;;;;;;;40.57;32.60;;;14.70;44.20;;;;;;4979272;28;20410;-84
2021/04/29 09:26:01;;;;;;;35.50;30.90;;;14.50;44.80;;;;;;4978222;28;20423;-85
2021/04/29 09:28:39;;;;;;;34.10;29.27;;;14.50;44.60;;;;;;4616705;28;10000312;-86
2021/04/29 09:31:07;;;;;;;34.80;31.10;;;14.20;44.00;;;;;;4958284;28;20284;-86
2021/04/29 09:33:35;;;;;;;38.77;34.57;;;14.00;45.10;;;;;;4981473;28;20434;-86
2021/04/29 09:36:01;;;;;;;37.23;33.43;;;14.20;44.50;;;;;;4980978;28;20406;-85
2021/04/29 09:38:35;;;;;;;32.30;28.13;;;13.80;43.70;;;;;;4977482;28;20601;-83
2021/04/29 09:41:01;;;;;;;30.50;27.13;;;16.30;41.00;;;;;;4976560;28;20456;-87
2021/04/29 09:43:36;;;;;;;33.40;30.10;;;17.50;37.90;;;;;;4962205;28;20524;-85
2021/04/29 09:46:03;;;;;;;30.43;27.43;;;17.00;37.20;;;;;;4976677;28;20412;-86
2021/04/29 09:48:36;;;;;;;39.03;29.80;;;17.00;36.80;;;;;;4974353;28;20424;-86
2021/04/29 09:51:02;;;;;;;26.90;24.10;;;17.20;36.70;;;;;;4956372;28;20457;-87
2021/04/29 09:53:42;;;;;;;29.27;26.27;;;17.30;36.50;;;;;;4973379;28;20437;-86
2021/04/29 09:56:10;;;;;;;31.30;28.07;;;17.10;36.40;;;;;;4974839;28;20417;-86
2021/04/29 09:58:36;;;;;;;28.70;25.70;;;17.50;36.30;;;;;;4973843;28;20433;-87
2021/04/29 10:01:04;;;;;;;31.27;27.87;;;17.70;35.90;;;;;;4954125;28;20426;-86
2021/04/29 10:03:32;;;;;;;26.13;23.50;;;17.20;35.90;;;;;;4975203;28;20448;-86
2021/04/29 10:05:58;;;;;;;28.00;25.17;;;17.10;35.20;;;;;;4972544;28;20429;-85
2021/04/29 10:08:26;;;;;;;28.63;25.70;;;17.10;36.00;;;;;;4966444;28;20840;-85
2021/04/29 10:10:55;;;;;;;27.13;24.23;;;17.80;36.20;;;;;;4979954;28;20467;-86
2021/04/29 10:13:27;;;;;;;24.37;21.90;;;19.10;34.90;;;;;;4984349;28;20483;-86
2021/04/29 10:15:53;;;;;;;21.37;18.83;;;19.60;32.90;;;;;;4975092;28;20808;-85
2021/04/29 10:18:19;;;;;;;29.00;26.17;;;18.50;32.00;;;;;;4992642;28;20499;-84
2021/04/29 10:20:49;;;;;;;26.80;24.37;;;19.10;33.20;;;;;;4979467;28;20178;-87
2021/04/29 10:23:17;;;;;;;25.27;22.73;;;19.00;32.00;;;;;;4980336;28;20182;-85
2021/04/29 10:25:55;;;;;;;24.83;22.37;;;19.70;32.80;;;;;;4979666;28;20539;-86
2021/04/29 10:28:37;;;;;;;27.57;25.17;;;19.10;33.20;;;;;;4975846;28;20432;-86
2021/04/29 10:31:20;;;;;;;28.13;25.13;;;19.20;32.60;;;;;;4973378;28;20475;-86
2021/04/29 10:34:01;;;;;;;24.67;22.27;;;19.50;32.20;;;;;;4956141;28;20764;-85
2021/04/29 10:36:36;;;;;;;23.03;20.57;;;20.90;32.50;;;;;;4973831;28;20430;-86
2021/04/29 10:39:11;;;;;;;25.70;22.90;;;19.40;31.10;;;;;;4974234;28;20453;-86
2021/04/29 10:41:37;;;;;;;25.87;23.47;;;18.30;32.30;;;;;;4976457;28;20525;-88
2021/04/29 10:44:09;;;;;;;28.13;25.57;;;17.60;32.20;;;;;;4957663;28;20490;-85
2021/04/29 10:46:38;;;;;;;22.80;20.57;;;19.60;32.40;;;;;;4974496;28;20406;-85
2021/04/29 10:49:04;;;;;;;21.70;19.23;;;20.30;31.10;;;;;;4975938;28;20417;-86
2021/04/29 10:51:33;;;;;;;24.20;21.60;;;19.50;31.40;;;;;;4976509;28;20569;-85
2021/04/29 10:54:09;;;;;;;24.40;22.10;;;18.40;32.30;;;;;;4979648;28;20170;-86
2021/04/29 10:56:36;;;;;;;25.10;22.70;;;18.50;32.70;;;;;;4987558;28;20433;-84
2021/04/29 10:59:13;;;;;;;22.83;20.43;;;18.90;33.20;;;;;;4970932;28;20421;-85
2021/04/29 11:01:45;;;;;;;19.37;17.40;;;19.60;31.50;;;;;;4978237;28;20413;-87
2021/04/29 11:04:16;;;;;;;23.80;21.47;;;19.80;31.40;;;;;;4975291;28;20831;-87
2021/04/29 11:06:43;;;;;;;25.63;23.13;;;20.00;32.30;;;;;;4975093;28;20414;-87
2021/04/29 11:09:17;;;;;;;24.23;22.03;;;18.30;33.00;;;;;;4957367;28;20429;-87
2021/04/29 11:11:59;;;;;;;24.33;21.90;;;18.40;33.50;;;;;;4957141;28;20569;-86
2021/04/29 11:14:36;;;;;;;23.30;21.30;;;19.50;32.00;;;;;;4974839;28;20409;-85
2021/04/29 11:17:02;;;;;;;22.67;20.57;;;19.40;30.90;;;;;;4958122;28;20440;-86
2021/04/29 11:19:47;;;;;;;23.17;21.00;;;18.60;32.10;;;;;;4957064;28;20417;-86
2021/04/29 11:22:25;;;;;;;23.87;21.23;;;17.80;33.20;;;;;;4956553;28;20458;-83
2021/04/29 11:24:51;;;;;;;22.63;18.17;;;17.00;34.40;;;;;;4628708;28;10000331;-87
2021/04/29 11:27:23;;;;;;;21.87;19.73;;;16.40;35.30;;;;;;4972230;28;20189;-85
2021/04/29 11:29:49;;;;;;;26.53;20.20;;;15.70;35.90;;;;;;4954116;28;20437;-85
2021/04/29 11:32:17;;;;;;;18.77;16.97;;;15.20;37.40;;;;;;4972101;28;20501;-86
2021/04/29 11:34:45;;;;;;;18.60;16.70;;;16.20;38.20;;;;;;4971986;28;20496;-86
2021/04/29 11:37:12;;;;;;;14.87;13.50;;;14.80;38.90;;;;;;4954580;28;20493;-86
2021/04/29 11:39:38;;;;;;;34.33;21.03;;;14.70;40.30;;;;;;4956190;28;20873;-83
2021/04/29 11:42:04;;;;;;;24.10;21.07;;;14.00;49.80;;;;;;4973067;28;20417;-85
2021/04/29 11:44:30;;;;;;;27.63;21.33;;;12.70;52.60;;;;;;4973366;28;20465;-84
2021/04/29 11:47:11;;;;;;;28.87;25.80;;;12.80;54.60;;;;;;4973806;28;20421;-83
2021/04/29 11:49:37;;;;;;;25.73;21.70;;;12.10;56.80;;;;;;4973851;28;20257;-84
2021/04/29 11:52:03;;;;;;;22.87;20.40;;;14.50;60.50;;;;;;4974374;28;20461;-83
2021/04/29 11:54:29;;;;;;;23.33;19.30;;;11.50;58.20;;;;;;4956541;28;20943;-84
2021/04/29 11:57:00;;;;;;;22.10;19.93;;;11.90;57.90;;;;;;4957633;28;20228;-85
2021/04/29 11:59:31;;;;;;;21.33;18.77;;;12.80;58.40;;;;;;4973900;28;20417;-86
2021/04/29 12:01:58;;;;;;;17.37;14.97;;;12.40;56.70;;;;;;4974312;28;20905;-85
2021/04/29 12:04:25;;;;;;;23.13;16.60;;;12.80;53.60;;;;;;4973837;28;20416;-86
2021/04/29 12:06:57;;;;;;;19.87;17.40;;;14.50;52.50;;;;;;4974045;28;20428;-85
2021/04/29 12:09:25;;;;;;;34.83;19.20;;;13.90;51.60;;;;;;4956305;28;20496;-86
2021/04/29 12:11:51;;;;;;;19.53;17.70;;;15.80;54.20;;;;;;4956564;28;20508;-85
2021/04/29 12:14:24;;;;;;;20.30;17.50;;;14.30;52.20;;;;;;4973881;28;20897;-84
2021/04/29 12:16:52;;;;;;;16.93;12.80;;;14.30;53.10;;;;;;4977036;28;20496;-84
2021/04/29 12:19:29;;;;;;;16.70;15.00;;;13.40;51.00;;;;;;4977862;28;20419;-84
2021/04/29 12:21:56;;;;;;;15.33;14.00;;;13.90;51.90;;;;;;4977227;28;20420;-87
2021/04/29 12:24:22;;;;;;;18.60;16.70;;;13.50;50.90;;;;;;4963058;28;20465;-85
2021/04/29 12:26:48;;;;;;;13.17;12.10;;;13.10;50.70;;;;;;4977051;28;20524;-86
2021/04/29 12:29:19;;;;;;;16.47;15.27;;;13.40;50.70;;;;;;4978237;28;20964;-85
2021/04/29 12:31:55;;;;;;;16.67;15.47;;;13.40;49.90;;;;;;4982561;28;20265;-88
2021/04/29 12:34:22;;;;;;;18.53;14.50;;;13.40;50.30;;;;;;4984266;28;20409;-89
2021/04/29 12:36:49;;;;;;;14.83;13.80;;;13.20;49.30;;;;;;4984384;28;20444;-85
2021/04/29 12:39:16;;;;;;;14.20;12.97;;;13.30;48.60;;;;;;4985917;28;20425;-88
2021/04/29 12:41:46;;;;;;;15.27;13.90;;;15.30;49.80;;;;;;4988412;28;20420;-88
2021/04/29 12:44:12;;;;;;;12.97;11.90;;;13.30;48.30;;;;;;4986955;28;20449;-88
2021/04/29 12:46:40;;;;;;;13.10;12.17;;;14.10;47.00;;;;;;4973421;28;20497;-88
2021/04/29 12:49:13;;;;;;;11.43;10.63;;;13.50;47.40;;;;;;4995851;28;20481;-89
2021/04/29 12:51:40;;;;;;;12.40;11.57;;;12.90;48.20;;;;;;4998068;28;20568;-89
2021/04/29 12:54:14;;;;;;;11.03;10.13;;;12.40;49.00;;;;;;4982206;28;20429;-90
2021/04/29 12:56:56;;;;;;;11.05;9.43;;;12.00;48.30;;;;;;4650979;28;9999660;-88
2021/04/29 12:59:49;;;;;;;10.30;9.80;;;12.40;49.40;;;;;;4979298;28;20181;-89
2021/04/29 13:02:26;;;;;;;9.93;9.03;;;12.30;49.70;;;;;;4992182;28;20477;-90
2021/04/29 13:05:03;;;;;;;9.83;9.13;;;14.50;52.00;;;;;;4974370;28;20436;-90
2021/04/29 13:07:51;;;;;;;12.53;11.73;;;12.60;49.50;;;;;;4992371;28;20488;-89
2021/04/29 13:10:22;;;;;;;11.00;10.20;;;12.10;50.10;;;;;;4990259;28;20421;-88
2021/04/29 13:12:52;;;;;;;11.97;10.87;;;12.20;51.40;;;;;;4954508;28;20477;-87